Gennaro Ievoli — 9HA3007 — position and weather

sailwx.info

Track history (hours):
 
Tides and Currents Weather Stations Pressure Air Temp Water Temp Dewpoint Dewpoint Depression Visibility Wind Speed Wind Dir Waves Ship Positions

Gennaro Ievoli

Last reported at 2014-Sep-03 06:33 UTC. Time now 2014-Sep-03 07:14 UTC.
Position N 37°04' W 000°26'.

Length 171 m; draft 7 m.

Type: Ship. MMSI: 229031000.

Date/timePositionNaut miles runAvg speedWind from/ knotsBaromVisibWave heightAir tempDewpointWater temp
2014-Sep-03 06:33N 37°04' W 000°26'1414.1
2014-Sep-03 05:33N 37°15' W 000°16'1414.2
2014-Sep-03 04:33N 37°27' W 000°06'1414.3
2014-Sep-03 03:33N 37°38' E 000°05'1414.1
2014-Sep-03 02:33N 37°50' E 000°15'1414.4
2014-Sep-03 01:34N 38°02' E 000°25'1515.0
2014-Sep-03 00:33N 38°16' E 000°30'1614.6
2014-Sep-02 23:27N 38°32' E 000°36'3114.2
2014-Sep-02 21:16N 39°02' E 000°46'2414.1
2014-Sep-02 19:32N 39°24' E 000°57'1514.6
2014-Sep-02 18:30N 39°39' E 001°04'1414.4
2014-Sep-02 17:33N 39°51' E 001°11'1514.7
2014-Sep-02 16:33N 40°05' E 001°17'1614.8
2014-Sep-02 15:29N 40°20' E 001°25'1514.7
2014-Sep-02 14:27N 40°35' E 001°30'1813.1
2014-Sep-02 13:06N 40°52' E 001°26'  
2014-Aug-30 19:30N 41°06' E 001°14'17 8.6
2014-Aug-30 17:33N 41°05' E 001°36'1614.8
2014-Aug-30 16:28N 41°10' E 001°56'14 1.1
2014-Aug-30 04:10N 41°20' E 002°09'0 0.0
2014-Aug-30 01:32N 41°20' E 002°09'0 0.0
2014-Aug-30 00:08N 41°20' E 002°09'0 0.0
2014-Aug-29 23:13N 41°20' E 002°09'0 0.0
2014-Aug-29 22:14N 41°20' E 002°09'0 0.0
2014-Aug-29 21:22N 41°20' E 002°09'3 3.1
2014-Aug-29 20:31N 41°18' E 002°11'1 0.3
2014-Aug-29 17:31N 41°18' E 002°12'0 0.0
2014-Aug-29 16:30N 41°18' E 002°12'0 0.2
2014-Aug-29 14:21N 41°18' E 002°12'8 9.7
2014-Aug-29 13:33N 41°12' E 002°18'1514.2
2014-Aug-29 12:31N 41°01' E 002°32'1313.9
2014-Aug-29 11:33N 40°52' E 002°45'1413.5
2014-Aug-29 10:33N 40°42' E 002°57'1413.8
2014-Aug-29 09:33N 40°39' E 003°15'2114.3
2014-Aug-29 08:06N 40°38' E 003°42'914.3
2014-Aug-29 07:28N 40°37' E 003°54'1714.5
2014-Aug-29 06:20N 40°36' E 004°16'2613.5
2014-Aug-29 04:26N 40°26' E 004°47'3014.3
2014-Aug-29 02:21N 40°08' E 005°19'5914.4
2014-Aug-28 22:17N 39°36' E 006°22'1114.4
2014-Aug-28 21:31N 39°30' E 006°34'1414.2
2014-Aug-28 20:33N 39°22' E 006°49'1514.0
2014-Aug-28 19:27N 39°13' E 007°05'2814.1
2014-Aug-28 17:27N 38°57' E 007°35'1314.3
2014-Aug-28 16:34N 38°50' E 007°49'1413.8
2014-Aug-28 15:34N 38°42' E 008°03'14112.7
2014-Aug-28 04:24N 37°17' E 010°27'1214.2
2014-Aug-28 03:32N 37°05' E 010°25'17 8.7
2014-Aug-28 01:33N 36°49' E 010°17'0 0.1
2014-Aug-28 00:31N 36°49' E 010°17'0 0.0
2014-Aug-27 00:33N 36°49' E 010°17'0 0.0
2014-Aug-26 23:32N 36°49' E 010°17'11 2.7
2014-Aug-26 19:32N 36°54' E 010°29'1414.0
2014-Aug-26 18:33N 37°06' E 010°38'1414.0
2014-Aug-26 17:33N 37°17' E 010°48'1414.0
2014-Aug-26 16:33N 37°28' E 010°59'1414.0
2014-Aug-26 15:33N 37°25' E 011°16'1514.6
2014-Aug-26 14:33N 37°18' E 011°33'3114.2
2014-Aug-26 12:23N 37°04' E 012°07'2514.0
2014-Aug-26 10:33N 36°53' E 012°36'9814.0
2014-Aug-26 03:30N 36°07' E 014°24'1414.0
2014-Aug-26 02:31N 35°59' E 014°38'9 7.5
2014-Aug-26 01:20N 35°50' E 014°36'0 0.0
2014-Aug-26 00:25N 35°50' E 014°36'0 0.0
2014-Aug-25 23:13N 35°50' E 014°36'0 0.0
2014-Aug-25 22:30N 35°50' E 014°36'0 0.0
2014-Aug-25 20:33N 35°50' E 014°36'0 0.0
2014-Aug-25 19:32N 35°50' E 014°36'0 0.0
2014-Aug-25 18:32N 35°50' E 014°36'0 0.0
2014-Aug-25 17:28N 35°50' E 014°36'1 0.6
2014-Aug-25 16:29N 35°50' E 014°37'1010.3
2014-Aug-25 15:33N 35°50' E 014°48'36013.7
2014-Aug-24 13:17N 34°33' E 021°59'  
Track history (hours):
 
Tides and Currents Weather Stations Pressure Air Temp Water Temp Dewpoint Dewpoint Depression Visibility Wind Speed Wind Dir Waves Ship Positions

Gennaro Ievoli

Last reported at 2014-Sep-03 06:33 UTC. Time now 2014-Sep-03 07:14 UTC.
Position N 37°04' W 000°26'.

Length 171 m; draft 7 m.

Type: Ship. MMSI: 229031000.

Date/timePositionNaut miles runAvg speedWind from/ knotsBaromVisibWave heightAir tempDewpointWater temp
2014-Sep-03 06:33N 37°04' W 000°26'1414.1
2014-Sep-03 05:33N 37°15' W 000°16'1414.2
2014-Sep-03 04:33N 37°27' W 000°06'1414.3
2014-Sep-03 03:33N 37°38' E 000°05'1414.1
2014-Sep-03 02:33N 37°50' E 000°15'1414.4
2014-Sep-03 01:34N 38°02' E 000°25'1515.0
2014-Sep-03 00:33N 38°16' E 000°30'1614.6
2014-Sep-02 23:27N 38°32' E 000°36'3114.2
2014-Sep-02 21:16N 39°02' E 000°46'2414.1
2014-Sep-02 19:32N 39°24' E 000°57'1514.6
2014-Sep-02 18:30N 39°39' E 001°04'1414.4
2014-Sep-02 17:33N 39°51' E 001°11'1514.7
2014-Sep-02 16:33N 40°05' E 001°17'1614.8
2014-Sep-02 15:29N 40°20' E 001°25'1514.7
2014-Sep-02 14:27N 40°35' E 001°30'1813.1
2014-Sep-02 13:06N 40°52' E 001°26'  
2014-Aug-30 19:30N 41°06' E 001°14'17 8.6
2014-Aug-30 17:33N 41°05' E 001°36'1614.8
2014-Aug-30 16:28N 41°10' E 001°56'14 1.1
2014-Aug-30 04:10N 41°20' E 002°09'0 0.0
2014-Aug-30 01:32N 41°20' E 002°09'0 0.0
2014-Aug-30 00:08N 41°20' E 002°09'0 0.0
2014-Aug-29 23:13N 41°20' E 002°09'0 0.0
2014-Aug-29 22:14N 41°20' E 002°09'0 0.0
2014-Aug-29 21:22N 41°20' E 002°09'3 3.1
2014-Aug-29 20:31N 41°18' E 002°11'1 0.3
2014-Aug-29 17:31N 41°18' E 002°12'0 0.0
2014-Aug-29 16:30N 41°18' E 002°12'0 0.2
2014-Aug-29 14:21N 41°18' E 002°12'8 9.7
2014-Aug-29 13:33N 41°12' E 002°18'1514.2
2014-Aug-29 12:31N 41°01' E 002°32'1313.9
2014-Aug-29 11:33N 40°52' E 002°45'1413.5
2014-Aug-29 10:33N 40°42' E 002°57'1413.8
2014-Aug-29 09:33N 40°39' E 003°15'2114.3
2014-Aug-29 08:06N 40°38' E 003°42'914.3
2014-Aug-29 07:28N 40°37' E 003°54'1714.5
2014-Aug-29 06:20N 40°36' E 004°16'2613.5
2014-Aug-29 04:26N 40°26' E 004°47'3014.3
2014-Aug-29 02:21N 40°08' E 005°19'5914.4
2014-Aug-28 22:17N 39°36' E 006°22'1114.4
2014-Aug-28 21:31N 39°30' E 006°34'1414.2
2014-Aug-28 20:33N 39°22' E 006°49'1514.0
2014-Aug-28 19:27N 39°13' E 007°05'2814.1
2014-Aug-28 17:27N 38°57' E 007°35'1314.3
2014-Aug-28 16:34N 38°50' E 007°49'1413.8
2014-Aug-28 15:34N 38°42' E 008°03'14112.7
2014-Aug-28 04:24N 37°17' E 010°27'1214.2
2014-Aug-28 03:32N 37°05' E 010°25'17 8.7
2014-Aug-28 01:33N 36°49' E 010°17'0 0.1
2014-Aug-28 00:31N 36°49' E 010°17'0 0.0
2014-Aug-27 00:33N 36°49' E 010°17'0 0.0
2014-Aug-26 23:32N 36°49' E 010°17'11 2.7
2014-Aug-26 19:32N 36°54' E 010°29'1414.0
2014-Aug-26 18:33N 37°06' E 010°38'1414.0
2014-Aug-26 17:33N 37°17' E 010°48'1414.0
2014-Aug-26 16:33N 37°28' E 010°59'1414.0
2014-Aug-26 15:33N 37°25' E 011°16'1514.6
2014-Aug-26 14:33N 37°18' E 011°33'3114.2
2014-Aug-26 12:23N 37°04' E 012°07'2514.0
2014-Aug-26 10:33N 36°53' E 012°36'9814.0
2014-Aug-26 03:30N 36°07' E 014°24'1414.0
2014-Aug-26 02:31N 35°59' E 014°38'9 7.5
2014-Aug-26 01:20N 35°50' E 014°36'0 0.0
2014-Aug-26 00:25N 35°50' E 014°36'0 0.0
2014-Aug-25 23:13N 35°50' E 014°36'0 0.0
2014-Aug-25 22:30N 35°50' E 014°36'0 0.0
2014-Aug-25 20:33N 35°50' E 014°36'0 0.0
2014-Aug-25 19:32N 35°50' E 014°36'0 0.0
2014-Aug-25 18:32N 35°50' E 014°36'0 0.0
2014-Aug-25 17:28N 35°50' E 014°36'1 0.6
2014-Aug-25 16:29N 35°50' E 014°37'1010.3
2014-Aug-25 15:33N 35°50' E 014°48'36013.7
2014-Aug-24 13:17N 34°33' E 021°59'  

Dump ship's entire track history